sensor_id;sensor_type;location;lat;lon;timestamp;temperature;humidity
73149;SHT30;61346;48.930;2.266;2022-07-24T00:02:05;22.95;59.57
73149;SHT30;61346;48.930;2.266;2022-07-24T00:04:30;22.95;59.59
73149;SHT30;61346;48.930;2.266;2022-07-24T00:06:55;22.89;59.69
73149;SHT30;61346;48.930;2.266;2022-07-24T00:09:21;22.85;59.86
73149;SHT30;61346;48.930;2.266;2022-07-24T00:11:49;22.85;59.93
73149;SHT30;61346;48.930;2.266;2022-07-24T00:14:15;22.84;59.97
73149;SHT30;61346;48.930;2.266;2022-07-24T00:16:40;22.82;59.98
73149;SHT30;61346;48.930;2.266;2022-07-24T00:19:06;22.78;60.09
73149;SHT30;61346;48.930;2.266;2022-07-24T00:21:31;22.78;60.18
73149;SHT30;61346;48.930;2.266;2022-07-24T00:23:57;22.71;60.16
73149;SHT30;61346;48.930;2.266;2022-07-24T00:26:22;22.69;60.24
73149;SHT30;61346;48.930;2.266;2022-07-24T00:28:48;22.67;60.38
73149;SHT30;61346;48.930;2.266;2022-07-24T00:31:18;22.64;60.40
73149;SHT30;61346;48.930;2.266;2022-07-24T00:33:46;22.61;60.62
73149;SHT30;61346;48.930;2.266;2022-07-24T00:36:16;22.58;60.57
73149;SHT30;61346;48.930;2.266;2022-07-24T00:38:42;22.54;60.72
73149;SHT30;61346;48.930;2.266;2022-07-24T00:41:09;22.51;60.58
73149;SHT30;61346;48.930;2.266;2022-07-24T00:43:34;22.50;60.67
73149;SHT30;61346;48.930;2.266;2022-07-24T00:46:00;22.45;60.45
73149;SHT30;61346;48.930;2.266;2022-07-24T00:48:25;22.41;60.60
73149;SHT30;61346;48.930;2.266;2022-07-24T00:50:52;22.38;60.58
73149;SHT30;61346;48.930;2.266;2022-07-24T00:53:17;22.38;60.71
73149;SHT30;61346;48.930;2.266;2022-07-24T00:55:43;22.34;60.66
73149;SHT30;61346;48.930;2.266;2022-07-24T00:58:09;22.33;60.87
73149;SHT30;61346;48.930;2.266;2022-07-24T01:00:36;22.33;60.90
73149;SHT30;61346;48.930;2.266;2022-07-24T01:03:01;22.31;60.97
73149;SHT30;61346;48.930;2.266;2022-07-24T01:05:27;22.27;61.04
73149;SHT30;61346;48.930;2.266;2022-07-24T01:07:52;22.25;61.04
73149;SHT30;61346;48.930;2.266;2022-07-24T01:10:18;22.25;61.12
73149;SHT30;61346;48.930;2.266;2022-07-24T01:12:43;22.20;61.36
73149;SHT30;61346;48.930;2.266;2022-07-24T01:15:11;22.16;61.33
73149;SHT30;61346;48.930;2.266;2022-07-24T01:17:41;22.13;61.49
73149;SHT30;61346;48.930;2.266;2022-07-24T01:20:08;22.10;61.61
73149;SHT30;61346;48.930;2.266;2022-07-24T01:22:38;22.12;61.82
73149;SHT30;61346;48.930;2.266;2022-07-24T01:25:04;22.07;61.87
73149;SHT30;61346;48.930;2.266;2022-07-24T01:27:30;22.03;61.90
73149;SHT30;61346;48.930;2.266;2022-07-24T01:29:55;22.03;61.97
73149;SHT30;61346;48.930;2.266;2022-07-24T01:32:21;22.00;62.16
73149;SHT30;61346;48.930;2.266;2022-07-24T01:34:46;21.97;62.21
73149;SHT30;61346;48.930;2.266;2022-07-24T01:37:14;21.93;62.36
73149;SHT30;61346;48.930;2.266;2022-07-24T01:39:39;21.94;62.30
73149;SHT30;61346;48.930;2.266;2022-07-24T01:42:05;21.93;62.48
73149;SHT30;61346;48.930;2.266;2022-07-24T01:44:30;21.89;62.43
73149;SHT30;61346;48.930;2.266;2022-07-24T01:46:57;21.88;62.52
73149;SHT30;61346;48.930;2.266;2022-07-24T01:49:23;21.86;62.66
73149;SHT30;61346;48.930;2.266;2022-07-24T01:51:48;21.83;62.73
73149;SHT30;61346;48.930;2.266;2022-07-24T01:54:14;21.82;62.89
73149;SHT30;61346;48.930;2.266;2022-07-24T01:56:42;21.78;62.93
73149;SHT30;61346;48.930;2.266;2022-07-24T01:59:10;21.76;62.97
73149;SHT30;61346;48.930;2.266;2022-07-24T02:01:36;21.74;63.11
73149;SHT30;61346;48.930;2.266;2022-07-24T02:04:01;21.76;63.09
73149;SHT30;61346;48.930;2.266;2022-07-24T02:06:27;21.74;63.18
73149;SHT30;61346;48.930;2.266;2022-07-24T02:08:52;21.69;63.21
73149;SHT30;61346;48.930;2.266;2022-07-24T02:11:17;21.69;63.42
73149;SHT30;61346;48.930;2.266;2022-07-24T02:13:44;21.65;63.44
73149;SHT30;61346;48.930;2.266;2022-07-24T02:16:10;21.63;63.46
73149;SHT30;61346;48.930;2.266;2022-07-24T02:18:36;21.62;63.60
73149;SHT30;61346;48.930;2.266;2022-07-24T02:21:02;21.62;63.62
73149;SHT30;61346;48.930;2.266;2022-07-24T02:23:28;21.59;63.74
73149;SHT30;61346;48.930;2.266;2022-07-24T02:25:56;21.61;63.78
73149;SHT30;61346;48.930;2.266;2022-07-24T02:28:21;21.58;63.80
73149;SHT30;61346;48.930;2.266;2022-07-24T02:30:46;21.55;63.90
73149;SHT30;61346;48.930;2.266;2022-07-24T02:33:12;21.52;63.89
73149;SHT30;61346;48.930;2.266;2022-07-24T02:35:42;21.51;64.02
73149;SHT30;61346;48.930;2.266;2022-07-24T02:38:07;21.47;64.07
73149;SHT30;61346;48.930;2.266;2022-07-24T02:40:34;21.49;64.15
73149;SHT30;61346;48.930;2.266;2022-07-24T02:43:04;21.49;64.23
73149;SHT30;61346;48.930;2.266;2022-07-24T02:45:33;21.48;64.36
73149;SHT30;61346;48.930;2.266;2022-07-24T02:47:58;21.45;64.39
73149;SHT30;61346;48.930;2.266;2022-07-24T02:50:28;21.44;64.53
73149;SHT30;61346;48.930;2.266;2022-07-24T02:52:54;21.41;64.58
73149;SHT30;61346;48.930;2.266;2022-07-24T02:55:19;21.42;64.60
73149;SHT30;61346;48.930;2.266;2022-07-24T02:57:45;21.38;64.64
73149;SHT30;61346;48.930;2.266;2022-07-24T03:00:14;21.35;64.73
73149;SHT30;61346;48.930;2.266;2022-07-24T03:02:43;21.37;64.83
73149;SHT30;61346;48.930;2.266;2022-07-24T03:05:09;21.31;64.98
73149;SHT30;61346;48.930;2.266;2022-07-24T03:07:35;21.31;64.87
73149;SHT30;61346;48.930;2.266;2022-07-24T03:10:07;21.31;65.05
73149;SHT30;61346;48.930;2.266;2022-07-24T03:12:33;21.28;65.12
73149;SHT30;61346;48.930;2.266;2022-07-24T03:14:59;21.27;65.21
73149;SHT30;61346;48.930;2.266;2022-07-24T03:17:24;21.27;65.18
73149;SHT30;61346;48.930;2.266;2022-07-24T03:19:50;21.27;65.28
73149;SHT30;61346;48.930;2.266;2022-07-24T03:22:18;21.24;65.29
73149;SHT30;61346;48.930;2.266;2022-07-24T03:24:43;21.26;65.35
73149;SHT30;61346;48.930;2.266;2022-07-24T03:27:09;21.23;65.38
73149;SHT30;61346;48.930;2.266;2022-07-24T03:29:34;21.18;65.52
73149;SHT30;61346;48.930;2.266;2022-07-24T03:32:00;21.17;65.53
73149;SHT30;61346;48.930;2.266;2022-07-24T03:34:33;21.18;65.60
73149;SHT30;61346;48.930;2.266;2022-07-24T03:36:58;21.18;65.60
73149;SHT30;61346;48.930;2.266;2022-07-24T03:39:27;21.15;65.54
73149;SHT30;61346;48.930;2.266;2022-07-24T03:41:52;21.14;65.71
73149;SHT30;61346;48.930;2.266;2022-07-24T03:44:18;21.12;65.74
73149;SHT30;61346;48.930;2.266;2022-07-24T03:46:43;21.11;65.85
73149;SHT30;61346;48.930;2.266;2022-07-24T03:49:08;21.10;65.82
73149;SHT30;61346;48.930;2.266;2022-07-24T03:51:34;21.08;65.88
73149;SHT30;61346;48.930;2.266;2022-07-24T03:54:01;21.06;65.91
73149;SHT30;61346;48.930;2.266;2022-07-24T03:56:27;21.04;66.06
73149;SHT30;61346;48.930;2.266;2022-07-24T03:58:54;21.04;66.11
73149;SHT30;61346;48.930;2.266;2022-07-24T04:01:20;21.01;66.28
73149;SHT30;61346;48.930;2.266;2022-07-24T04:07:02;20.96;66.43
73149;SHT30;61346;48.930;2.266;2022-07-24T04:09:28;20.96;66.41
73149;SHT30;61346;48.930;2.266;2022-07-24T04:11:53;20.93;66.55
73149;SHT30;61346;48.930;2.266;2022-07-24T04:14:19;20.92;66.45
73149;SHT30;61346;48.930;2.266;2022-07-24T04:16:44;20.94;66.65
73149;SHT30;61346;48.930;2.266;2022-07-24T04:19:13;20.92;66.78
73149;SHT30;61346;48.930;2.266;2022-07-24T04:21:38;20.92;66.75
73149;SHT30;61346;48.930;2.266;2022-07-24T04:24:05;20.92;66.69
73149;SHT30;61346;48.930;2.266;2022-07-24T04:26:31;20.89;66.87
73149;SHT30;61346;48.930;2.266;2022-07-24T04:28:56;20.87;66.93
73149;SHT30;61346;48.930;2.266;2022-07-24T04:31:22;20.87;66.93
73149;SHT30;61346;48.930;2.266;2022-07-24T04:33:47;20.87;67.13
73149;SHT30;61346;48.930;2.266;2022-07-24T04:36:12;20.89;67.10
73149;SHT30;61346;48.930;2.266;2022-07-24T04:38:38;20.87;67.06
73149;SHT30;61346;48.930;2.266;2022-07-24T04:41:03;20.90;67.07
73149;SHT30;61346;48.930;2.266;2022-07-24T04:43:30;20.90;67.15
73149;SHT30;61346;48.930;2.266;2022-07-24T04:45:58;20.93;67.12
73149;SHT30;61346;48.930;2.266;2022-07-24T04:48:23;20.92;67.16
73149;SHT30;61346;48.930;2.266;2022-07-24T04:50:50;20.93;67.09
73149;SHT30;61346;48.930;2.266;2022-07-24T04:53:15;20.97;66.97
73149;SHT30;61346;48.930;2.266;2022-07-24T04:55:41;20.96;67.11
73149;SHT30;61346;48.930;2.266;2022-07-24T04:58:06;20.96;67.18
73149;SHT30;61346;48.930;2.266;2022-07-24T05:00:32;21.00;67.13
73149;SHT30;61346;48.930;2.266;2022-07-24T05:02:57;21.03;67.07
73149;SHT30;61346;48.930;2.266;2022-07-24T05:05:23;21.01;66.99
73149;SHT30;61346;48.930;2.266;2022-07-24T05:07:48;21.03;66.91
73149;SHT30;61346;48.930;2.266;2022-07-24T05:10:15;21.06;66.86
73149;SHT30;61346;48.930;2.266;2022-07-24T05:12:41;21.07;66.88
73149;SHT30;61346;48.930;2.266;2022-07-24T05:15:10;21.10;66.80
73149;SHT30;61346;48.930;2.266;2022-07-24T05:17:37;21.11;66.69
73149;SHT30;61346;48.930;2.266;2022-07-24T05:20:04;21.14;66.80
73149;SHT30;61346;48.930;2.266;2022-07-24T05:22:31;21.15;66.89
73149;SHT30;61346;48.930;2.266;2022-07-24T05:24:56;21.20;66.82
73149;SHT30;61346;48.930;2.266;2022-07-24T05:27:22;21.23;66.61
73149;SHT30;61346;48.930;2.266;2022-07-24T05:29:49;21.24;66.74
73149;SHT30;61346;48.930;2.266;2022-07-24T05:32:17;21.26;66.71
73149;SHT30;61346;48.930;2.266;2022-07-24T05:34:44;21.27;66.78
73149;SHT30;61346;48.930;2.266;2022-07-24T05:37:09;21.32;66.61
73149;SHT30;61346;48.930;2.266;2022-07-24T05:39:36;21.37;66.54
73149;SHT30;61346;48.930;2.266;2022-07-24T05:42:02;21.41;66.66
73149;SHT30;61346;48.930;2.266;2022-07-24T05:44:30;21.47;66.80
73149;SHT30;61346;48.930;2.266;2022-07-24T05:46:56;21.49;66.60
73149;SHT30;61346;48.930;2.266;2022-07-24T05:49:22;21.56;66.63
73149;SHT30;61346;48.930;2.266;2022-07-24T05:51:48;21.59;66.56
73149;SHT30;61346;48.930;2.266;2022-07-24T05:54:17;21.68;66.35
73149;SHT30;61346;48.930;2.266;2022-07-24T05:56:42;21.74;66.18
73149;SHT30;61346;48.930;2.266;2022-07-24T05:59:08;21.78;65.92
73149;SHT30;61346;48.930;2.266;2022-07-24T06:01:33;21.83;65.82
73149;SHT30;61346;48.930;2.266;2022-07-24T06:04:03;21.86;65.50
73149;SHT30;61346;48.930;2.266;2022-07-24T06:06:30;21.92;65.46
73149;SHT30;61346;48.930;2.266;2022-07-24T06:08:57;22.00;65.08
73149;SHT30;61346;48.930;2.266;2022-07-24T06:11:26;22.04;64.62
73149;SHT30;61346;48.930;2.266;2022-07-24T06:13:51;22.12;64.28
73149;SHT30;61346;48.930;2.266;2022-07-24T06:16:17;22.18;64.02
73149;SHT30;61346;48.930;2.266;2022-07-24T06:18:43;22.25;63.44
73149;SHT30;61346;48.930;2.266;2022-07-24T06:21:12;22.34;63.17
73149;SHT30;61346;48.930;2.266;2022-07-24T06:23:38;22.38;63.14
73149;SHT30;61346;48.930;2.266;2022-07-24T06:26:03;22.47;63.10
73149;SHT30;61346;48.930;2.266;2022-07-24T06:28:29;22.54;63.21
73149;SHT30;61346;48.930;2.266;2022-07-24T06:30:57;22.58;62.60
73149;SHT30;61346;48.930;2.266;2022-07-24T06:33:23;22.67;62.36
73149;SHT30;61346;48.930;2.266;2022-07-24T06:35:48;22.73;62.19
73149;SHT30;61346;48.930;2.266;2022-07-24T06:38:15;22.76;62.07
73149;SHT30;61346;48.930;2.266;2022-07-24T06:40:42;22.81;61.84
73149;SHT30;61346;48.930;2.266;2022-07-24T06:43:09;22.91;61.67
73149;SHT30;61346;48.930;2.266;2022-07-24T06:45:34;22.99;61.50
73149;SHT30;61346;48.930;2.266;2022-07-24T06:48:01;23.05;61.29
73149;SHT30;61346;48.930;2.266;2022-07-24T06:50:27;23.07;61.25
73149;SHT30;61346;48.930;2.266;2022-07-24T06:52:53;23.17;61.14
73149;SHT30;61346;48.930;2.266;2022-07-24T06:55:19;23.24;60.87
73149;SHT30;61346;48.930;2.266;2022-07-24T06:57:44;23.30;61.05
73149;SHT30;61346;48.930;2.266;2022-07-24T07:00:10;23.37;60.61
73149;SHT30;61346;48.930;2.266;2022-07-24T07:02:37;23.44;60.59
73149;SHT30;61346;48.930;2.266;2022-07-24T07:05:06;23.53;60.76
73149;SHT30;61346;48.930;2.266;2022-07-24T07:07:33;23.57;60.73
73149;SHT30;61346;48.930;2.266;2022-07-24T07:09:58;23.65;60.53
73149;SHT30;61346;48.930;2.266;2022-07-24T07:12:27;23.68;60.34
73149;SHT30;61346;48.930;2.266;2022-07-24T07:14:53;23.77;60.27
73149;SHT30;61346;48.930;2.266;2022-07-24T07:17:18;23.84;60.33
73149;SHT30;61346;48.930;2.266;2022-07-24T07:19:44;23.90;59.91
73149;SHT30;61346;48.930;2.266;2022-07-24T07:22:10;23.95;59.98
73149;SHT30;61346;48.930;2.266;2022-07-24T07:24:36;24.02;59.63
73149;SHT30;61346;48.930;2.266;2022-07-24T07:27:01;24.09;59.55
73149;SHT30;61346;48.930;2.266;2022-07-24T07:29:27;24.12;59.52
73149;SHT30;61346;48.930;2.266;2022-07-24T07:31:52;24.19;59.26
73149;SHT30;61346;48.930;2.266;2022-07-24T07:34:21;24.23;59.35
73149;SHT30;61346;48.930;2.266;2022-07-24T07:36:46;24.27;59.22
73149;SHT30;61346;48.930;2.266;2022-07-24T07:39:12;24.33;59.11
73149;SHT30;61346;48.930;2.266;2022-07-24T07:41:37;24.40;59.07
73149;SHT30;61346;48.930;2.266;2022-07-24T07:44:03;24.46;59.14
73149;SHT30;61346;48.930;2.266;2022-07-24T07:46:29;24.54;58.99
73149;SHT30;61346;48.930;2.266;2022-07-24T07:48:55;24.61;58.60
73149;SHT30;61346;48.930;2.266;2022-07-24T07:51:23;24.68;58.56
73149;SHT30;61346;48.930;2.266;2022-07-24T07:53:49;24.72;58.39
73149;SHT30;61346;48.930;2.266;2022-07-24T07:56:14;24.80;58.67
73149;SHT30;61346;48.930;2.266;2022-07-24T07:58:40;24.88;58.23
73149;SHT30;61346;48.930;2.266;2022-07-24T08:01:05;24.94;58.15
73149;SHT30;61346;48.930;2.266;2022-07-24T08:03:31;24.98;58.05
73149;SHT30;61346;48.930;2.266;2022-07-24T08:05:56;25.05;57.85
73149;SHT30;61346;48.930;2.266;2022-07-24T08:08:22;25.11;57.92
73149;SHT30;61346;48.930;2.266;2022-07-24T08:10:47;25.16;58.18
73149;SHT30;61346;48.930;2.266;2022-07-24T08:13:13;25.25;57.42
73149;SHT30;61346;48.930;2.266;2022-07-24T08:15:42;25.32;57.30
73149;SHT30;61346;48.930;2.266;2022-07-24T08:18:09;25.40;57.38
73149;SHT30;61346;48.930;2.266;2022-07-24T08:20:37;25.46;57.13
73149;SHT30;61346;48.930;2.266;2022-07-24T08:23:05;25.54;56.91
73149;SHT30;61346;48.930;2.266;2022-07-24T08:25:32;25.62;56.88
73149;SHT30;61346;48.930;2.266;2022-07-24T08:28:03;25.70;56.66
73149;SHT30;61346;48.930;2.266;2022-07-24T08:30:29;25.80;55.66
73149;SHT30;61346;48.930;2.266;2022-07-24T08:32:57;25.88;55.79
73149;SHT30;61346;48.930;2.266;2022-07-24T08:35:23;25.97;55.66
73149;SHT30;61346;48.930;2.266;2022-07-24T08:37:49;26.02;55.70
73149;SHT30;61346;48.930;2.266;2022-07-24T08:40:15;26.08;55.19
73149;SHT30;61346;48.930;2.266;2022-07-24T08:42:42;26.18;55.54
73149;SHT30;61346;48.930;2.266;2022-07-24T08:45:12;26.24;54.65
73149;SHT30;61346;48.930;2.266;2022-07-24T08:47:39;26.33;54.12
73149;SHT30;61346;48.930;2.266;2022-07-24T08:50:06;26.43;54.10
73149;SHT30;61346;48.930;2.266;2022-07-24T08:52:35;26.52;53.53
73149;SHT30;61346;48.930;2.266;2022-07-24T08:55:01;26.61;53.18
73149;SHT30;61346;48.930;2.266;2022-07-24T08:57:27;26.73;52.88
73149;SHT30;61346;48.930;2.266;2022-07-24T08:59:56;26.81;53.27
73149;SHT30;61346;48.930;2.266;2022-07-24T09:02:21;26.87;51.58
73149;SHT30;61346;48.930;2.266;2022-07-24T09:04:50;26.95;50.68
73149;SHT30;61346;48.930;2.266;2022-07-24T09:07:22;27.00;51.89
73149;SHT30;61346;48.930;2.266;2022-07-24T09:10:06;27.11;51.40
73149;SHT30;61346;48.930;2.266;2022-07-24T09:12:36;27.18;50.56
73149;SHT30;61346;48.930;2.266;2022-07-24T09:15:18;27.29;50.14
73149;SHT30;61346;48.930;2.266;2022-07-24T09:17:51;27.37;50.50
73149;SHT30;61346;48.930;2.266;2022-07-24T09:20:17;27.43;49.89
73149;SHT30;61346;48.930;2.266;2022-07-24T09:22:43;27.53;51.02
73149;SHT30;61346;48.930;2.266;2022-07-24T09:25:25;27.62;50.30
73149;SHT30;61346;48.930;2.266;2022-07-24T09:27:54;27.69;50.35
73149;SHT30;61346;48.930;2.266;2022-07-24T09:30:30;27.71;49.15
73149;SHT30;61346;48.930;2.266;2022-07-24T09:33:03;27.80;49.40
73149;SHT30;61346;48.930;2.266;2022-07-24T09:35:37;27.93;48.21
73149;SHT30;61346;48.930;2.266;2022-07-24T09:38:04;28.04;47.94
73149;SHT30;61346;48.930;2.266;2022-07-24T09:40:52;28.14;46.23
73149;SHT30;61346;48.930;2.266;2022-07-24T09:43:41;28.20;46.58
73149;SHT30;61346;48.930;2.266;2022-07-24T09:46:10;28.31;46.56
73149;SHT30;61346;48.930;2.266;2022-07-24T09:48:53;28.35;47.37
73149;SHT30;61346;48.930;2.266;2022-07-24T09:51:20;28.47;47.01
73149;SHT30;61346;48.930;2.266;2022-07-24T09:53:52;28.52;46.96
73149;SHT30;61346;48.930;2.266;2022-07-24T09:56:18;28.66;46.63
73149;SHT30;61346;48.930;2.266;2022-07-24T09:58:50;28.76;45.05
73149;SHT30;61346;48.930;2.266;2022-07-24T10:01:19;28.84;45.71
73149;SHT30;61346;48.930;2.266;2022-07-24T10:03:47;28.92;45.98
73149;SHT30;61346;48.930;2.266;2022-07-24T10:06:34;28.94;44.26
73149;SHT30;61346;48.930;2.266;2022-07-24T10:09:12;29.03;44.50
73149;SHT30;61346;48.930;2.266;2022-07-24T10:11:39;29.13;43.44
73149;SHT30;61346;48.930;2.266;2022-07-24T10:14:09;29.23;42.99
73149;SHT30;61346;48.930;2.266;2022-07-24T10:16:36;29.30;44.13
73149;SHT30;61346;48.930;2.266;2022-07-24T10:19:16;29.39;42.63
73149;SHT30;61346;48.930;2.266;2022-07-24T10:22:08;29.45;41.49
73149;SHT30;61346;48.930;2.266;2022-07-24T10:24:57;29.52;42.21
73149;SHT30;61346;48.930;2.266;2022-07-24T10:29:55;29.58;42.74
73149;SHT30;61346;48.930;2.266;2022-07-24T10:32:22;29.63;43.75
73149;SHT30;61346;48.930;2.266;2022-07-24T10:40:25;29.95;42.25
73149;SHT30;61346;48.930;2.266;2022-07-24T10:45:36;30.17;39.01
73149;SHT30;61346;48.930;2.266;2022-07-24T10:48:42;30.27;40.29
73149;SHT30;61346;48.930;2.266;2022-07-24T10:51:25;30.27;39.28
73149;SHT30;61346;48.930;2.266;2022-07-24T10:53:54;30.30;40.34
73149;SHT30;61346;48.930;2.266;2022-07-24T10:59:04;30.44;39.96
73149;SHT30;61346;48.930;2.266;2022-07-24T11:03:57;30.64;39.40
73149;SHT30;61346;48.930;2.266;2022-07-24T11:06:47;30.71;39.52
73149;SHT30;61346;48.930;2.266;2022-07-24T11:09:14;30.76;38.86
73149;SHT30;61346;48.930;2.266;2022-07-24T11:14:25;30.83;38.02
73149;SHT30;61346;48.930;2.266;2022-07-24T11:16:52;30.92;38.14
73149;SHT30;61346;48.930;2.266;2022-07-24T11:21:45;31.04;38.23
73149;SHT30;61346;48.930;2.266;2022-07-24T11:27:13;31.13;37.58
73149;SHT30;61346;48.930;2.266;2022-07-24T11:29:46;31.19;36.71
73149;SHT30;61346;48.930;2.266;2022-07-24T11:32:16;31.27;36.57
73149;SHT30;61346;48.930;2.266;2022-07-24T11:34:47;31.31;36.26
73149;SHT30;61346;48.930;2.266;2022-07-24T11:37:14;31.40;37.02
73149;SHT30;61346;48.930;2.266;2022-07-24T11:39:42;31.53;36.83
73149;SHT30;61346;48.930;2.266;2022-07-24T11:42:13;31.64;36.51
73149;SHT30;61346;48.930;2.266;2022-07-24T11:44:48;31.80;34.75
73149;SHT30;61346;48.930;2.266;2022-07-24T11:47:23;31.89;35.62
73149;SHT30;61346;48.930;2.266;2022-07-24T11:49:54;31.98;35.98
73149;SHT30;61346;48.930;2.266;2022-07-24T11:52:36;32.12;36.39
73149;SHT30;61346;48.930;2.266;2022-07-24T11:55:15;32.20;36.06
73149;SHT30;61346;48.930;2.266;2022-07-24T11:57:42;32.36;35.14
73149;SHT30;61346;48.930;2.266;2022-07-24T12:00:14;32.44;35.11
73149;SHT30;61346;48.930;2.266;2022-07-24T12:02:49;32.56;35.76
73149;SHT30;61346;48.930;2.266;2022-07-24T12:05:29;32.67;35.23
73149;SHT30;61346;48.930;2.266;2022-07-24T12:07:56;32.77;34.09
73149;SHT30;61346;48.930;2.266;2022-07-24T12:10:22;32.80;34.39
73149;SHT30;61346;48.930;2.266;2022-07-24T12:12:53;33.08;32.64
73149;SHT30;61346;48.930;2.266;2022-07-24T12:15:21;33.73;32.32
73149;SHT30;61346;48.930;2.266;2022-07-24T12:20:36;33.90;31.87
73149;SHT30;61346;48.930;2.266;2022-07-24T12:23:05;33.73;32.30
73149;SHT30;61346;48.930;2.266;2022-07-24T12:25:31;33.90;32.84
73149;SHT30;61346;48.930;2.266;2022-07-24T12:28:10;34.11;31.10
73149;SHT30;61346;48.930;2.266;2022-07-24T12:30:41;34.24;32.18
73149;SHT30;61346;48.930;2.266;2022-07-24T12:33:24;34.80;31.74
73149;SHT30;61346;48.930;2.266;2022-07-24T12:36:05;34.76;30.41
73149;SHT30;61346;48.930;2.266;2022-07-24T12:38:35;34.62;31.10
73149;SHT30;61346;48.930;2.266;2022-07-24T12:41:09;34.62;31.72
73149;SHT30;61346;48.930;2.266;2022-07-24T12:46:40;35.51;30.86
73149;SHT30;61346;48.930;2.266;2022-07-24T12:49:10;36.26;29.80
73149;SHT30;61346;48.930;2.266;2022-07-24T12:51:56;35.83;29.67
73149;SHT30;61346;48.930;2.266;2022-07-24T12:54:27;35.55;30.65
73149;SHT30;61346;48.930;2.266;2022-07-24T12:56:57;35.45;30.14
73149;SHT30;61346;48.930;2.266;2022-07-24T12:59:36;35.48;31.13
73149;SHT30;61346;48.930;2.266;2022-07-24T13:02:06;35.55;30.50
73149;SHT30;61346;48.930;2.266;2022-07-24T13:04:39;35.61;29.15
73149;SHT30;61346;48.930;2.266;2022-07-24T13:07:08;35.83;29.85
73149;SHT30;61346;48.930;2.266;2022-07-24T13:09:36;36.00;29.58
73149;SHT30;61346;48.930;2.266;2022-07-24T13:12:02;36.09;29.93
73149;SHT30;61346;48.930;2.266;2022-07-24T13:14:28;36.40;29.94
73149;SHT30;61346;48.930;2.266;2022-07-24T13:17:04;36.91;28.51
73149;SHT30;61346;48.930;2.266;2022-07-24T13:19:36;36.71;28.38
73149;SHT30;61346;48.930;2.266;2022-07-24T13:22:01;36.45;29.48
73149;SHT30;61346;48.930;2.266;2022-07-24T13:24:27;36.68;28.66
73149;SHT30;61346;48.930;2.266;2022-07-24T13:26:52;36.64;28.88
73149;SHT30;61346;48.930;2.266;2022-07-24T13:29:18;36.47;28.94
73149;SHT30;61346;48.930;2.266;2022-07-24T13:31:43;36.38;29.26
73149;SHT30;61346;48.930;2.266;2022-07-24T13:34:09;36.38;30.05
73149;SHT30;61346;48.930;2.266;2022-07-24T13:36:36;36.47;29.90
73149;SHT30;61346;48.930;2.266;2022-07-24T13:39:08;36.45;29.89
73149;SHT30;61346;48.930;2.266;2022-07-24T13:41:33;36.52;29.10
73149;SHT30;61346;48.930;2.266;2022-07-24T13:44:00;36.52;29.13
73149;SHT30;61346;48.930;2.266;2022-07-24T13:46:26;36.71;28.16
73149;SHT30;61346;48.930;2.266;2022-07-24T13:48:52;36.92;29.05
73149;SHT30;61346;48.930;2.266;2022-07-24T13:51:18;37.84;28.51
73149;SHT30;61346;48.930;2.266;2022-07-24T13:53:44;38.43;28.23
73149;SHT30;61346;48.930;2.266;2022-07-24T13:56:11;38.57;27.23
73149;SHT30;61346;48.930;2.266;2022-07-24T13:58:37;38.53;28.08
73149;SHT30;61346;48.930;2.266;2022-07-24T14:01:10;38.18;27.54
73149;SHT30;61346;48.930;2.266;2022-07-24T14:03:40;38.40;27.27
73149;SHT30;61346;48.930;2.266;2022-07-24T14:06:08;39.69;26.00
73149;SHT30;61346;48.930;2.266;2022-07-24T14:08:36;40.03;25.99
73149;SHT30;61346;48.930;2.266;2022-07-24T14:11:04;39.55;26.64
73149;SHT30;61346;48.930;2.266;2022-07-24T14:13:29;39.17;26.42
73149;SHT30;61346;48.930;2.266;2022-07-24T14:15:55;39.03;27.71
73149;SHT30;61346;48.930;2.266;2022-07-24T14:18:21;39.42;25.68
73149;SHT30;61346;48.930;2.266;2022-07-24T14:20:47;39.33;25.68
73149;SHT30;61346;48.930;2.266;2022-07-24T14:23:13;39.14;25.53
73149;SHT30;61346;48.930;2.266;2022-07-24T14:25:38;39.07;25.98
73149;SHT30;61346;48.930;2.266;2022-07-24T14:28:04;39.85;26.51
73149;SHT30;61346;48.930;2.266;2022-07-24T14:30:30;41.03;26.04
73149;SHT30;61346;48.930;2.266;2022-07-24T14:32:58;41.99;25.23
73149;SHT30;61346;48.930;2.266;2022-07-24T14:35:23;44.97;23.54
73149;SHT30;61346;48.930;2.266;2022-07-24T14:37:49;46.99;21.58
73149;SHT30;61346;48.930;2.266;2022-07-24T14:40:17;47.92;20.75
73149;SHT30;61346;48.930;2.266;2022-07-24T14:42:43;48.84;20.34
73149;SHT30;61346;48.930;2.266;2022-07-24T14:45:09;50.19;18.63
73149;SHT30;61346;48.930;2.266;2022-07-24T14:47:34;50.92;18.56
73149;SHT30;61346;48.930;2.266;2022-07-24T14:50:00;51.16;18.20
73149;SHT30;61346;48.930;2.266;2022-07-24T14:52:26;51.57;18.67
73149;SHT30;61346;48.930;2.266;2022-07-24T14:54:51;51.97;17.98
73149;SHT30;61346;48.930;2.266;2022-07-24T14:57:17;51.96;18.49
73149;SHT30;61346;48.930;2.266;2022-07-24T14:59:43;52.09;17.75
73149;SHT30;61346;48.930;2.266;2022-07-24T15:02:09;51.98;18.00
73149;SHT30;61346;48.930;2.266;2022-07-24T15:04:35;52.17;18.75
73149;SHT30;61346;48.930;2.266;2022-07-24T15:07:01;52.85;18.47
73149;SHT30;61346;48.930;2.266;2022-07-24T15:09:29;53.95;15.68
73149;SHT30;61346;48.930;2.266;2022-07-24T15:11:55;54.43;17.08
73149;SHT30;61346;48.930;2.266;2022-07-24T15:14:20;55.05;17.19
73149;SHT30;61346;48.930;2.266;2022-07-24T15:16:48;55.69;16.68
73149;SHT30;61346;48.930;2.266;2022-07-24T15:19:14;56.49;16.00
73149;SHT30;61346;48.930;2.266;2022-07-24T15:21:39;57.14;16.49
73149;SHT30;61346;48.930;2.266;2022-07-24T15:24:06;58.27;16.01
73149;SHT30;61346;48.930;2.266;2022-07-24T15:26:36;59.28;15.67
73149;SHT30;61346;48.930;2.266;2022-07-24T15:29:01;59.95;15.61
73149;SHT30;61346;48.930;2.266;2022-07-24T15:31:27;60.30;14.66
73149;SHT30;61346;48.930;2.266;2022-07-24T15:33:53;60.19;15.22
73149;SHT30;61346;48.930;2.266;2022-07-24T15:36:18;60.29;14.59
73149;SHT30;61346;48.930;2.266;2022-07-24T15:38:44;60.50;15.25
73149;SHT30;61346;48.930;2.266;2022-07-24T15:41:09;60.25;14.55
73149;SHT30;61346;48.930;2.266;2022-07-24T15:43:35;60.52;14.56
73149;SHT30;61346;48.930;2.266;2022-07-24T15:46:08;60.43;14.45
73149;SHT30;61346;48.930;2.266;2022-07-24T15:48:34;60.35;14.16
73149;SHT30;61346;48.930;2.266;2022-07-24T15:51:00;59.84;13.48
73149;SHT30;61346;48.930;2.266;2022-07-24T15:53:26;59.64;13.93
73149;SHT30;61346;48.930;2.266;2022-07-24T15:55:51;59.70;14.60
73149;SHT30;61346;48.930;2.266;2022-07-24T15:58:16;60.16;14.22
73149;SHT30;61346;48.930;2.266;2022-07-24T16:00:42;60.38;14.25
73149;SHT30;61346;48.930;2.266;2022-07-24T16:03:07;60.64;14.30
73149;SHT30;61346;48.930;2.266;2022-07-24T16:05:36;60.77;14.54
73149;SHT30;61346;48.930;2.266;2022-07-24T16:08:02;60.55;12.57